SCI weather

Paramillo Airport
Tachira, Venezuela

Public forecast

Using degrees Celsius for public forecast. Weather courtesy of forecast.io.

Current aviation weather report (METAR) for Paramillo Airport

Report is more than 6 hours old.

Retrieved 2017/09/20 18:00 UTC (2 years ago):

SVPM 201800Z 00000KT 9999 BKN030 XX/XX Q1013

Closest aviation forecast (TAF) to Paramillo Airport

Closest forecast is San Antonio Del Tachira Airport, 14.3 nm (26.5 km) W. Retrieved 2019/10/14 18:09 UTC (3 hours ago):

TAF TAF SVSA 142200Z 1418/1518 14004KT 9999 FEW020 TX31/19Z TN21/09Z TEMPO 1418/1422 14008KT 8000 +DZ FEW017 BKN0200